This is the latest recevied weather packets stored in our database for station/object EA5AER-5. If no packets are shown the sender has not sent any weather packets the latest 10 day(s).
| Time | Temp. | Humidity | Pressure | Rain* | Wind** | Luminosity | Snow |
|---|---|---|---|---|---|---|---|
| 1777747029 | 18.33° C | 84% | 1015 hPa | 0 mm | - | 9 W/m² | - |
| 1777745819 | 18.89° C | 78% | 1015.5 hPa | 0 mm | - | 11 W/m² | - |
| 1777744550 | 19.44° C | 78% | 1015.3 hPa | 0 mm | - | 53 W/m² | - |
| 1777743309 | 19.44° C | 78% | 1015.3 hPa | 0 mm | - | 53 W/m² | - |
| 1777741994 | 20.56° C | 75% | 1015.6 hPa | 0 mm | - | 230 W/m² | - |
| 1777740784 | 20.56° C | 75% | 1015.6 hPa | 0 mm | - | 230 W/m² | - |
| 1777739631 | 20° C | 78% | 1015.5 hPa | 0 mm | - | 330 W/m² | - |
| 1777738424 | 19.44° C | 81% | 1016.1 hPa | 0 mm | - | 279 W/m² | - |
| 1777737096 | 19.44° C | 81% | 1016.1 hPa | 0 mm | - | 279 W/m² | - |
| 1777735964 | 19.44° C | 81% | 1016.1 hPa | 0 mm | - | 279 W/m² | - |
| 1777734790 | 20° C | 79% | 1016.5 hPa | 0 mm | - | 461 W/m² | - |
| 1777733669 | 20° C | 79% | 1016.5 hPa | 0 mm | - | 461 W/m² | - |
| 1777733633 | 20° C | 79% | 1016.5 hPa | 0 mm | - | 461 W/m² | - |
| 1777732306 | 20° C | 78% | 1016.9 hPa | 0 mm | - | 306 W/m² | - |
| 1777731028 | 20.56° C | 77% | 1017.1 hPa | 0 mm | - | 315 W/m² | - |
| 1777729769 | 20.56° C | 77% | 1017.1 hPa | 0 mm | - | 315 W/m² | - |
| 1777728483 | 20.56° C | 76% | 1017.3 hPa | 0 mm | - | 436 W/m² | - |
| 1777727258 | 20.56° C | 76% | 1017.8 hPa | 0 mm | - | 714 W/m² | - |
| 1777725951 | 20.56° C | 76% | 1017.8 hPa | 0 mm | - | 714 W/m² | - |
| 1777724670 | 20.56° C | 76% | 1018.2 hPa | 0 mm | - | 570 W/m² | - |
| 1777723530 | 20.56° C | 76% | 1018.2 hPa | 0 mm | - | 570 W/m² | - |
| 1777722353 | 20.56° C | 76% | 1018.2 hPa | 0 mm | - | 570 W/m² | - |
| 1777721133 | 20.56° C | 76% | 1018.2 hPa | 0 mm | - | 570 W/m² | - |
| 1777719932 | 20.56° C | 76% | 1018.2 hPa | 0 mm | - | 570 W/m² | - |
| 1777718804 | 20.56° C | 79% | 1018.6 hPa | 0 mm | - | 367 W/m² | - |
* Rain latest hour (hover to see other rain measurements)
** Current wind speed in m/s (hover to see current wind gust speed)